Terminal Aerodrome Forecast
Issued by NWS La Crosse, WI

Home | Current Version | Previous Version | Text Only | Print | Product List | Glossary On
Versions: 1 2 3 4 5 6 7 8 9 10 11 12 13 14 15 16 17 18 19 20 21 22 23 24 25 26 27 28 29 30 31 32 33 34 35 36
552
FTUS43 KARX 140531
TAFLSE
TAF
KLSE 140531Z 1406/1506 14007KT P6SM BKN080
     FM141200 14010KT 5SM -SN SCT010 BKN040
     FM141300 15010KT 2SM -SN BKN010
     FM141900 15013G20KT 3SM -SN BKN015
     FM142300 15008KT 5SM -SN BKN020=

USA.gov is the U.S. government's official web portal to all federal, state and local government web resources and services.